Time;durP1;ratioP1;P1;durP2;ratioP2;P2;SDS_P1;SDS_P2;PMS_P1;PMS_P2;Temp;Humidity;BMP_temperature;BMP_pressure;BME280_temperature;BME280_humidity;BME280_pressure;Samples;Min_cycle;Max_cycle;Signal;HPM_P1;HPM_P2
2021/08/30 00:00:22;;;;;;;0.60;0.60;;;;;;;12.13;94.66;96143.78;114295;1200;28322;-84
2021/08/30 00:03:08;;;;;;;0.90;0.80;;;;;;;12.13;94.75;96143.13;114181;1207;28427;-85
2021/08/30 00:05:39;;;;;;;1.60;1.00;;;;;;;12.13;94.68;96138.66;114346;1201;30456;-85
2021/08/30 00:08:10;;;;;;;2.70;1.00;;;;;;;12.15;94.75;96139.80;114155;1206;31388;-85
2021/08/30 00:10:41;;;;;;;0.90;0.80;;;;;;;12.15;94.72;96139.84;114135;1206;26863;-86
2021/08/30 00:13:12;;;;;;;1.10;0.90;;;;;;;12.16;94.72;96139.50;114241;1206;27610;-85
2021/08/30 00:15:43;;;;;;;1.40;1.00;;;;;;;12.16;94.73;96142.75;114146;1203;28183;-85
2021/08/30 00:18:14;;;;;;;1.30;1.20;;;;;;;12.16;94.68;96144.65;114239;1202;35672;-85
2021/08/30 00:20:44;;;;;;;1.40;1.10;;;;;;;12.15;94.68;96148.46;114321;1206;33440;-84
2021/08/30 00:23:15;;;;;;;1.30;1.20;;;;;;;12.14;94.65;96151.40;114291;1201;26348;-85
2021/08/30 00:25:46;;;;;;;1.00;0.90;;;;;;;12.15;94.77;96147.61;114291;1205;27655;-85
2021/08/30 00:28:17;;;;;;;1.70;0.90;;;;;;;12.13;94.76;96147.11;114175;1201;26825;-86
2021/08/30 00:30:48;;;;;;;3.50;1.10;;;;;;;12.12;94.81;96148.38;114265;1203;28583;-85
2021/08/30 00:33:18;;;;;;;1.60;1.30;;;;;;;12.11;94.95;96147.85;114299;1206;27808;-85
2021/08/30 00:35:49;;;;;;;1.50;1.30;;;;;;;12.09;94.84;96144.01;114273;1200;26389;-85
2021/08/30 00:38:20;;;;;;;2.00;1.80;;;;;;;12.07;94.91;96154.25;114272;1203;35304;-85
2021/08/30 00:40:51;;;;;;;2.30;1.90;;;;;;;12.08;94.95;96152.00;114245;1203;28716;-86
2021/08/30 00:43:23;;;;;;;2.10;1.70;;;;;;;12.09;95.15;96152.60;114300;1200;26334;-87
2021/08/30 00:45:55;;;;;;;1.70;1.60;;;;;;;12.12;95.11;96156.44;114304;1204;27987;-86
2021/08/30 00:48:26;;;;;;;3.10;2.60;;;;;;;12.13;95.15;96158.48;114410;1208;26612;-86
2021/08/30 00:50:58;;;;;;;3.50;2.60;;;;;;;12.15;95.11;96158.94;114437;1206;34951;-85
2021/08/30 00:53:29;;;;;;;2.70;2.20;;;;;;;12.15;95.05;96160.25;114378;1200;25979;-86
2021/08/30 00:56:00;;;;;;;3.70;2.80;;;;;;;12.15;95.10;96156.53;114410;1200;27940;-85
2021/08/30 00:58:31;;;;;;;3.40;2.80;;;;;;;12.15;95.06;96159.84;114362;1208;28697;-86
2021/08/30 01:01:02;;;;;;;3.00;2.70;;;;;;;12.14;95.13;96158.30;114287;1207;40664;-85
2021/08/30 01:03:33;;;;;;;3.10;2.70;;;;;;;12.13;95.15;96160.08;114299;1200;28764;-85
2021/08/30 01:06:10;;;;;;;3.00;2.70;;;;;;;12.14;95.21;96157.58;114372;1197;35571;-85
2021/08/30 01:09:18;;;;;;;3.70;3.30;;;;;;;12.13;95.22;96160.04;114357;1200;26904;-85
2021/08/30 01:11:58;;;;;;;2.50;2.30;;;;;;;12.11;95.19;96161.36;114330;1200;27916;-86
2021/08/30 01:14:32;;;;;;;2.30;2.10;;;;;;;12.11;95.18;96159.06;114391;1203;27142;-86
2021/08/30 01:17:06;;;;;;;2.50;2.20;;;;;;;12.12;95.21;96158.03;114315;1200;28728;-85
2021/08/30 01:19:43;;;;;;;2.10;1.80;;;;;;;12.13;95.14;96160.27;114335;1204;42007;-86
2021/08/30 01:22:16;;;;;;;1.80;1.60;;;;;;;12.13;95.16;96159.83;114266;1202;29036;-85
2021/08/30 01:24:48;;;;;;;2.90;1.60;;;;;;;12.14;95.17;96160.70;114273;1200;28793;-85
2021/08/30 01:27:21;;;;;;;3.20;1.50;;;;;;;12.12;95.20;96161.23;114284;1200;31254;-85
2021/08/30 01:29:59;;;;;;;1.80;1.70;;;;;;;12.11;95.21;96157.74;114283;1201;32447;-86
2021/08/30 01:32:34;;;;;;;1.80;1.60;;;;;;;12.11;95.32;96159.28;114298;1200;43619;-86
2021/08/30 01:35:09;;;;;;;1.80;1.60;;;;;;;12.12;95.28;96155.81;114288;1200;27321;-86
2021/08/30 01:37:43;;;;;;;1.40;1.30;;;;;;;12.11;95.38;96158.81;114268;1200;30799;-85
2021/08/30 01:40:16;;;;;;;1.50;1.40;;;;;;;12.10;95.43;96150.23;114303;1200;34013;-85
2021/08/30 01:42:52;;;;;;;1.10;1.00;;;;;;;12.10;95.38;96152.59;114318;1208;26442;-85
2021/08/30 01:45:25;;;;;;;1.50;1.40;;;;;;;12.10;95.43;96152.75;114284;1200;30003;-86
2021/08/30 01:47:59;;;;;;;1.10;1.00;;;;;;;12.10;95.42;96154.50;114352;1201;29640;-85
2021/08/30 01:50:32;;;;;;;1.40;1.30;;;;;;;12.09;95.51;96152.70;114268;1200;28928;-85
2021/08/30 01:53:05;;;;;;;1.80;1.30;;;;;;;12.09;95.51;96155.54;114316;1208;26376;-85
2021/08/30 01:55:42;;;;;;;2.00;1.80;;;;;;;12.08;95.51;96153.81;114280;1200;27224;-86
2021/08/30 02:01:02;;;;;;;2.00;1.80;;;;;;;12.07;95.72;96150.80;114302;1202;26477;-85
2021/08/30 02:03:34;;;;;;;2.10;1.90;;;;;;;12.06;95.70;96145.61;114299;1201;28397;-86
2021/08/30 02:06:07;;;;;;;2.70;2.30;;;;;;;12.08;95.67;96136.59;114301;1200;28144;-86
2021/08/30 02:08:37;;;;;;;2.70;2.50;;;;;;;12.07;95.48;96134.05;114307;1200;31925;-86
2021/08/30 02:11:14;;;;;;;2.80;2.20;;;;;;;12.06;95.45;96129.05;114292;1200;32497;-86
2021/08/30 02:13:45;;;;;;;2.30;2.10;;;;;;;12.03;95.48;96122.09;114264;1200;29591;-86
2021/08/30 02:16:16;;;;;;;2.50;2.20;;;;;;;12.00;95.64;96121.41;114274;1203;30406;-85
2021/08/30 02:18:53;;;;;;;2.30;2.00;;;;;;;11.97;95.57;96129.08;114264;1200;27147;-86
2021/08/30 02:21:32;;;;;;;3.50;2.60;;;;;;;11.98;95.70;96137.73;114269;1204;27687;-86
2021/08/30 02:24:08;;;;;;;2.90;2.60;;;;;;;11.97;95.66;96126.53;114252;1200;27201;-85
2021/08/30 02:26:44;;;;;;;2.60;2.30;;;;;;;11.97;95.66;96127.27;114265;1200;41571;-85
2021/08/30 02:29:19;;;;;;;3.30;2.90;;;;;;;11.97;95.69;96125.10;114267;1201;30151;-86
2021/08/30 02:31:55;;;;;;;3.60;3.00;;;;;;;11.97;95.61;96124.77;114254;1200;29723;-85
2021/08/30 02:34:29;;;;;;;3.70;2.70;;;;;;;11.95;95.45;96125.06;114326;1200;28310;-85
2021/08/30 02:37:00;;;;;;;3.30;2.90;;;;;;;11.95;95.43;96130.22;114374;1200;25052;-85
2021/08/30 02:39:32;;;;;;;3.20;2.90;;;;;;;11.94;95.48;96128.12;114254;1197;41656;-84
2021/08/30 02:42:05;;;;;;;4.20;3.10;;;;;;;11.95;95.55;96130.18;114245;1201;29403;-83
2021/08/30 02:44:36;;;;;;;3.20;2.50;;;;;;;11.95;95.71;96127.19;114256;1200;31178;-84
2021/08/30 02:47:08;;;;;;;3.20;2.50;;;;;;;11.95;95.56;96121.25;114297;1200;31590;-85
2021/08/30 02:49:40;;;;;;;2.30;2.10;;;;;;;11.95;95.60;96119.06;114238;1203;32921;-86
2021/08/30 02:52:12;;;;;;;2.30;2.10;;;;;;;11.96;95.53;96121.33;114267;1201;28680;-85
2021/08/30 02:54:47;;;;;;;2.10;1.90;;;;;;;11.97;95.61;96122.44;114212;1203;28081;-85
2021/08/30 02:57:19;;;;;;;2.50;2.10;;;;;;;11.96;95.59;96121.02;114246;1201;29244;-86
2021/08/30 02:59:52;;;;;;;2.40;2.20;;;;;;;11.94;95.33;96118.52;114260;1203;28264;-85
2021/08/30 03:02:24;;;;;;;2.80;2.30;;;;;;;11.92;95.01;96118.92;114180;1203;29211;-85
2021/08/30 03:04:57;;;;;;;2.50;2.00;;;;;;;11.88;94.73;96121.77;114325;1197;31233;-85
2021/08/30 03:07:31;;;;;;;2.40;2.20;;;;;;;11.85;94.58;96119.30;114360;1200;27688;-86
2021/08/30 03:10:02;;;;;;;2.40;1.90;;;;;;;11.82;94.69;96120.40;114273;1200;32524;-85
2021/08/30 03:12:38;;;;;;;3.00;2.40;;;;;;;11.78;95.16;96113.56;114232;1200;26704;-84
2021/08/30 03:15:14;;;;;;;2.60;2.40;;;;;;;11.74;95.45;96116.88;114214;1200;26347;-85
2021/08/30 03:17:46;;;;;;;2.40;2.20;;;;;;;11.71;95.77;96123.48;114230;1208;28363;-86
2021/08/30 03:20:23;;;;;;;2.50;2.20;;;;;;;11.68;95.90;96125.44;114262;1200;39397;-85
2021/08/30 03:22:56;;;;;;;2.80;2.40;;;;;;;11.66;96.02;96124.84;114235;1200;30522;-85
2021/08/30 03:25:31;;;;;;;3.20;2.40;;;;;;;11.65;95.97;96127.79;114318;1200;29895;-85
2021/08/30 03:28:04;;;;;;;3.50;2.60;;;;;;;11.63;95.87;96131.66;114268;1200;29097;-84
2021/08/30 03:30:36;;;;;;;2.80;2.60;;;;;;;11.64;95.83;96133.59;114301;1200;27687;-86
2021/08/30 03:33:08;;;;;;;3.10;2.70;;;;;;;11.65;95.84;96128.58;114253;1196;35254;-86
2021/08/30 03:35:40;;;;;;;4.70;3.00;;;;;;;11.66;95.64;96129.46;114234;1201;28716;-86
2021/08/30 03:38:12;;;;;;;3.10;2.50;;;;;;;11.66;95.50;96130.37;114252;1200;28041;-86
2021/08/30 03:40:44;;;;;;;2.40;2.20;;;;;;;11.67;95.52;96131.72;114198;1200;27407;-85
2021/08/30 03:43:16;;;;;;;5.20;4.10;;;;;;;11.66;95.53;96123.56;114256;1203;40571;-85
2021/08/30 03:45:47;;;;;;;4.70;3.40;;;;;;;11.65;95.62;96127.42;114217;1200;61118;-86
2021/08/30 03:48:19;;;;;;;4.20;3.40;;;;;;;11.66;95.69;96131.64;114172;1202;28183;-86
2021/08/30 03:50:50;;;;;;;3.30;2.80;;;;;;;11.66;95.67;96135.24;114346;1200;35402;-86
2021/08/30 03:53:23;;;;;;;3.90;3.30;;;;;;;11.66;95.61;96131.42;114229;1203;28486;-86
2021/08/30 03:55:55;;;;;;;4.00;2.80;;;;;;;11.64;95.44;96129.73;114246;1200;28983;-86
2021/08/30 03:58:27;;;;;;;2.40;2.20;;;;;;;11.61;95.22;96130.32;114342;1203;27675;-85
2021/08/30 04:01:04;;;;;;;3.00;2.70;;;;;;;11.57;95.10;96126.52;114345;1197;36584;-85
2021/08/30 04:03:38;;;;;;;3.00;2.70;;;;;;;11.57;95.21;96131.04;114245;1200;28378;-86
2021/08/30 04:06:10;;;;;;;3.40;3.00;;;;;;;11.58;95.15;96126.77;114251;1200;26031;-85
2021/08/30 04:08:41;;;;;;;3.60;3.10;;;;;;;11.57;95.08;96132.25;114225;1200;31547;-85
2021/08/30 04:11:14;;;;;;;4.10;3.10;;;;;;;11.56;95.13;96125.48;114270;1202;25840;-86
2021/08/30 04:13:45;;;;;;;3.60;3.30;;;;;;;11.58;95.26;96130.59;114257;1197;29750;-86
2021/08/30 04:16:16;;;;;;;3.10;2.60;;;;;;;11.58;95.15;96131.08;114280;1203;27751;-86
2021/08/30 04:18:47;;;;;;;4.40;2.60;;;;;;;11.56;95.09;96136.47;114286;1200;28271;-86
2021/08/30 04:21:18;;;;;;;3.30;2.70;;;;;;;11.55;95.14;96139.20;114233;1203;26661;-85
2021/08/30 04:23:49;;;;;;;3.30;2.80;;;;;;;11.55;95.07;96137.39;114338;1200;26469;-85
2021/08/30 04:26:20;;;;;;;2.90;2.60;;;;;;;11.54;94.92;96133.59;114313;1207;29779;-86
2021/08/30 04:28:51;;;;;;;3.00;2.70;;;;;;;11.52;95.01;96136.89;114299;1200;29935;-86
2021/08/30 04:31:22;;;;;;;3.60;2.80;;;;;;;11.54;95.18;96139.57;114347;1200;27615;-86
2021/08/30 04:33:53;;;;;;;2.90;2.60;;;;;;;11.51;95.38;96142.91;114280;1200;27199;-84
2021/08/30 04:36:24;;;;;;;2.80;2.40;;;;;;;11.50;95.32;96145.75;114336;1200;28773;-86
2021/08/30 04:38:55;;;;;;;3.90;2.70;;;;;;;11.50;95.32;96140.88;114210;1201;30470;-85
2021/08/30 04:41:26;;;;;;;5.70;2.80;;;;;;;11.50;95.22;96142.19;114273;1200;28258;-85
2021/08/30 04:43:57;;;;;;;3.50;2.90;;;;;;;11.49;95.14;96139.40;114385;1203;31027;-85
2021/08/30 04:46:29;;;;;;;3.70;2.90;;;;;;;11.50;95.01;96140.78;114278;1201;26197;-85
2021/08/30 04:49:00;;;;;;;3.30;2.60;;;;;;;11.50;95.03;96136.41;114424;1200;27676;-85
2021/08/30 04:51:31;;;;;;;3.00;2.30;;;;;;;11.50;95.16;96133.59;114385;1200;27533;-84
2021/08/30 04:54:02;;;;;;;3.80;2.80;;;;;;;11.52;95.25;96135.42;114228;1201;28480;-84
2021/08/30 04:56:32;;;;;;;3.00;2.60;;;;;;;11.53;95.23;96136.19;114297;1207;28349;-84
2021/08/30 04:59:03;;;;;;;3.40;2.60;;;;;;;11.53;95.30;96132.57;114336;1200;27272;-84
2021/08/30 05:01:34;;;;;;;3.70;2.70;;;;;;;11.52;95.37;96132.34;114191;1197;29849;-85
2021/08/30 05:04:07;;;;;;;3.40;2.70;;;;;;;11.48;95.24;96139.05;114348;1200;32823;-84
2021/08/30 05:06:37;;;;;;;5.10;3.10;;;;;;;11.47;95.17;96135.79;114326;1203;31877;-85
2021/08/30 05:09:08;;;;;;;3.70;2.90;;;;;;;11.46;95.10;96139.31;114271;1204;33590;-85
2021/08/30 05:11:39;;;;;;;5.00;2.70;;;;;;;11.46;95.23;96136.97;114245;1200;27097;-86
2021/08/30 05:14:10;;;;;;;3.40;3.10;;;;;;;11.45;95.37;96140.30;114295;1200;28712;-86
2021/08/30 05:16:41;;;;;;;3.80;3.10;;;;;;;11.44;95.41;96138.73;114227;1200;41449;-85
2021/08/30 05:19:12;;;;;;;3.40;2.90;;;;;;;11.44;95.47;96137.45;114213;1200;31329;-86
2021/08/30 05:21:43;;;;;;;3.10;2.50;;;;;;;11.41;95.41;96134.64;114267;1200;31445;-86
2021/08/30 05:24:14;;;;;;;3.40;2.50;;;;;;;11.40;95.29;96137.30;114286;1200;26264;-86
2021/08/30 05:26:45;;;;;;;3.30;2.40;;;;;;;11.40;95.28;96137.14;114218;1197;28423;-85
2021/08/30 05:29:16;;;;;;;3.70;2.70;;;;;;;11.39;95.20;96136.67;114248;1200;26780;-85
2021/08/30 05:31:47;;;;;;;3.90;3.00;;;;;;;11.39;95.22;96134.61;114272;1200;29405;-85
2021/08/30 05:34:18;;;;;;;3.10;2.80;;;;;;;11.39;95.34;96137.69;114293;1208;27351;-85
2021/08/30 05:36:49;;;;;;;3.20;2.90;;;;;;;11.42;95.52;96132.61;114234;1200;26688;-85
2021/08/30 05:39:20;;;;;;;3.70;2.90;;;;;;;11.41;95.40;96130.66;114275;1205;28750;-85
2021/08/30 05:41:51;;;;;;;3.60;3.00;;;;;;;11.41;95.41;96134.86;114276;1203;40401;-86
2021/08/30 05:44:22;;;;;;;2.20;2.00;;;;;;;11.42;95.47;96130.68;114259;1200;27796;-85
2021/08/30 05:46:53;;;;;;;2.40;2.20;;;;;;;11.42;95.42;96124.43;114242;1200;29148;-86
2021/08/30 05:49:24;;;;;;;3.20;2.80;;;;;;;11.44;95.50;96129.05;114191;1203;26511;-85
2021/08/30 05:51:55;;;;;;;2.50;2.30;;;;;;;11.47;95.64;96127.77;114278;1201;28749;-84
2021/08/30 05:54:26;;;;;;;3.40;2.40;;;;;;;11.51;95.70;96125.89;114263;1202;32324;-85
2021/08/30 05:56:57;;;;;;;2.90;2.40;;;;;;;11.51;95.76;96127.67;114311;1200;27900;-84
2021/08/30 05:59:28;;;;;;;2.30;2.10;;;;;;;11.52;95.82;96124.16;114310;1200;33665;-85
2021/08/30 06:01:59;;;;;;;2.10;1.80;;;;;;;11.52;95.83;96127.72;114387;1200;28628;-85
2021/08/30 06:04:30;;;;;;;2.80;2.00;;;;;;;11.54;95.87;96127.42;114244;1200;31048;-85
2021/08/30 06:07:02;;;;;;;2.10;1.70;;;;;;;11.55;95.65;96124.71;114279;1204;34454;-84
2021/08/30 06:09:33;;;;;;;2.10;1.80;;;;;;;11.57;95.70;96130.89;114272;1200;50273;-84
2021/08/30 06:12:05;;;;;;;1.90;1.60;;;;;;;11.61;95.81;96125.11;114210;1203;43655;-84
2021/08/30 06:14:36;;;;;;;2.30;1.80;;;;;;;11.62;95.62;96124.93;114279;1200;27775;-84
2021/08/30 06:17:08;;;;;;;2.60;1.80;;;;;;;11.64;95.60;96121.13;114297;1200;29540;-85
2021/08/30 06:19:39;;;;;;;2.40;1.40;;;;;;;11.63;95.59;96121.25;114271;1208;33153;-85
2021/08/30 06:22:11;;;;;;;2.10;1.70;;;;;;;11.66;95.68;96118.53;114271;1200;30853;-85
2021/08/30 06:24:46;;;;;;;1.40;1.30;;;;;;;11.68;95.59;96116.47;114296;1200;31315;-84
2021/08/30 06:27:20;;;;;;;2.10;1.50;;;;;;;11.69;95.41;96117.10;114251;1200;29272;-86
2021/08/30 06:29:51;;;;;;;2.00;1.40;;;;;;;11.71;95.36;96116.89;114298;1200;29905;-85
2021/08/30 06:32:23;;;;;;;1.40;1.30;;;;;;;11.73;95.28;96114.18;114392;1200;29980;-85
2021/08/30 06:34:53;;;;;;;1.20;1.10;;;;;;;11.73;94.89;96117.38;114314;1203;29559;-85
2021/08/30 06:37:25;;;;;;;2.50;1.20;;;;;;;11.70;94.64;96119.56;114300;1200;33942;-85
2021/08/30 06:39:56;;;;;;;0.90;0.90;;;;;;;11.71;94.72;96123.38;114381;1196;28001;-84
2021/08/30 06:42:27;;;;;;;1.40;1.00;;;;;;;11.70;94.56;96117.70;114385;1208;30180;-85
2021/08/30 06:44:58;;;;;;;1.10;1.00;;;;;;;11.62;94.16;96118.55;114385;1200;28089;-84
2021/08/30 06:47:29;;;;;;;1.30;0.90;;;;;;;11.61;94.37;96115.77;114352;1196;27866;-84
2021/08/30 06:50:00;;;;;;;1.30;1.00;;;;;;;11.56;94.07;96118.09;114360;1200;28153;-85
2021/08/30 06:52:31;;;;;;;2.00;1.40;;;;;;;11.49;94.09;96115.20;114304;1200;28108;-84
2021/08/30 06:55:03;;;;;;;2.20;1.40;;;;;;;11.46;94.18;96119.45;114337;1200;28726;-83
2021/08/30 06:57:35;;;;;;;1.80;1.30;;;;;;;11.45;94.37;96114.50;114287;1200;28784;-84
2021/08/30 07:00:08;;;;;;;1.60;1.30;;;;;;;11.42;94.43;96109.73;114279;1200;37782;-85
2021/08/30 07:02:40;;;;;;;2.20;1.70;;;;;;;11.41;94.52;96109.44;114278;1203;37530;-84
2021/08/30 07:05:11;;;;;;;1.70;1.00;;;;;;;11.40;94.77;96108.69;114311;1200;32033;-85
2021/08/30 07:07:42;;;;;;;1.60;1.00;;;;;;;11.35;94.52;96101.61;114280;1200;36590;-84
2021/08/30 07:10:14;;;;;;;1.30;1.00;;;;;;;11.33;94.66;96102.30;114270;1203;29534;-87
2021/08/30 07:12:45;;;;;;;0.90;0.80;;;;;;;11.29;94.91;96099.34;114287;1200;28296;-84
2021/08/30 07:15:17;;;;;;;1.00;0.90;;;;;;;11.28;95.24;96102.60;114296;1200;30475;-86
2021/08/30 07:17:48;;;;;;;1.60;0.80;;;;;;;11.25;95.47;96108.44;114301;1194;32304;-85
2021/08/30 07:20:19;;;;;;;1.00;0.90;;;;;;;11.23;95.58;96109.86;114291;1200;27611;-85
2021/08/30 07:22:50;;;;;;;0.80;0.80;;;;;;;11.21;95.74;96116.84;114246;1201;29327;-86
2021/08/30 07:25:22;;;;;;;1.40;0.80;;;;;;;11.20;95.87;96119.20;114235;1203;28245;-85
2021/08/30 07:27:53;;;;;;;1.10;1.00;;;;;;;11.20;95.96;96122.33;114239;1203;34548;-85
2021/08/30 07:30:24;;;;;;;1.00;0.90;;;;;;;11.21;95.93;96122.89;114215;1203;26653;-86
2021/08/30 07:32:56;;;;;;;0.90;0.80;;;;;;;11.23;96.06;96125.82;114208;1200;28870;-85
2021/08/30 07:35:27;;;;;;;1.00;0.80;;;;;;;11.24;95.97;96121.14;114269;1200;31009;-86
2021/08/30 07:37:59;;;;;;;0.80;0.60;;;;;;;11.26;96.16;96122.70;114272;1204;29203;-84
2021/08/30 07:40:30;;;;;;;0.70;0.70;;;;;;;11.28;96.40;96121.99;114291;1200;25752;-83
2021/08/30 07:43:01;;;;;;;0.90;0.70;;;;;;;11.31;96.35;96124.52;114224;1194;31083;-85
2021/08/30 07:45:32;;;;;;;0.80;0.50;;;;;;;11.34;96.37;96124.46;114221;1207;28439;-84
2021/08/30 07:48:04;;;;;;;0.70;0.60;;;;;;;11.37;96.51;96124.30;114235;1200;28306;-85
2021/08/30 07:50:35;;;;;;;1.80;1.10;;;;;;;11.40;96.41;96121.69;114150;1200;36436;-85
2021/08/30 07:53:06;;;;;;;0.40;0.40;;;;;;;11.43;96.26;96122.08;114223;1202;29907;-86
2021/08/30 07:55:38;;;;;;;0.50;0.50;;;;;;;11.45;96.37;96123.41;114164;1201;28253;-85
2021/08/30 07:58:09;;;;;;;0.60;0.40;;;;;;;11.47;96.35;96128.05;114188;1202;28798;-85
2021/08/30 08:00:40;;;;;;;0.70;0.40;;;;;;;11.51;96.43;96128.70;114155;1201;30750;-85
2021/08/30 08:03:11;;;;;;;0.50;0.40;;;;;;;11.52;96.40;96127.28;114176;1200;29553;-85
2021/08/30 08:05:42;;;;;;;0.40;0.30;;;;;;;11.54;96.58;96124.23;114187;1202;30833;-85
2021/08/30 08:08:13;;;;;;;0.30;0.30;;;;;;;11.55;96.60;96130.48;114240;1203;30511;-87
2021/08/30 08:10:44;;;;;;;0.20;0.20;;;;;;;11.57;96.52;96130.83;114170;1201;27727;-84
2021/08/30 08:13:15;;;;;;;0.20;0.20;;;;;;;11.59;96.67;96129.18;114253;1201;28735;-85
2021/08/30 08:15:49;;;;;;;0.70;0.50;;;;;;;11.58;96.83;96130.37;114215;1200;27872;-85
2021/08/30 08:18:20;;;;;;;0.50;0.30;;;;;;;11.61;97.00;96131.64;114195;1201;28413;-85
2021/08/30 08:20:52;;;;;;;0.30;0.30;;;;;;;11.64;96.95;96133.38;114193;1203;26323;-85
2021/08/30 08:23:22;;;;;;;0.40;0.30;;;;;;;11.68;97.02;96133.20;114168;1200;27916;-85
2021/08/30 08:25:54;;;;;;;0.20;0.20;;;;;;;11.72;97.16;96133.32;114211;1200;32905;-85
2021/08/30 08:28:25;;;;;;;0.40;0.40;;;;;;;11.74;97.16;96132.13;114189;1200;31965;-85
2021/08/30 08:30:56;;;;;;;0.30;0.30;;;;;;;11.80;97.24;96132.38;114279;1200;29713;-85
2021/08/30 08:33:27;;;;;;;0.50;0.30;;;;;;;11.86;97.26;96133.27;114228;1203;29020;-85
2021/08/30 08:35:58;;;;;;;0.30;0.30;;;;;;;11.93;97.20;96134.95;114289;1200;31225;-84
2021/08/30 08:38:30;;;;;;;0.40;0.30;;;;;;;11.98;97.17;96133.89;114274;1201;25483;-85
2021/08/30 08:41:01;;;;;;;0.30;0.20;;;;;;;12.05;97.28;96135.58;114283;1202;28348;-85
2021/08/30 08:43:34;;;;;;;0.10;0.10;;;;;;;12.14;97.39;96135.41;114247;1200;28011;-85
2021/08/30 08:46:06;;;;;;;0.10;0.10;;;;;;;12.23;97.54;96136.90;114252;1196;30375;-85
2021/08/30 08:48:37;;;;;;;0.70;0.30;;;;;;;12.31;97.78;96141.13;114163;1201;28252;-85
2021/08/30 08:51:09;;;;;;;0.60;0.30;;;;;;;12.36;97.49;96140.05;114181;1201;27298;-85
2021/08/30 08:53:40;;;;;;;0.40;0.20;;;;;;;12.39;97.23;96139.40;114195;1202;28098;-85
2021/08/30 08:56:15;;;;;;;0.60;0.30;;;;;;;12.45;97.43;96141.08;114169;1201;26804;-85
2021/08/30 08:58:46;;;;;;;0.20;0.20;;;;;;;12.52;97.39;96140.13;114183;1201;29007;-85
2021/08/30 09:01:23;;;;;;;0.40;0.30;;;;;;;12.58;97.23;96136.27;114216;1202;27840;-86
2021/08/30 09:03:56;;;;;;;0.30;0.30;;;;;;;12.62;97.11;96141.95;114222;1207;29652;-85
2021/08/30 09:06:30;;;;;;;0.30;0.30;;;;;;;12.68;97.27;96141.71;114287;1202;30792;-85
2021/08/30 09:09:05;;;;;;;0.80;0.40;;;;;;;12.73;97.38;96143.35;114143;1208;28330;-84
2021/08/30 09:11:39;;;;;;;0.60;0.50;;;;;;;12.77;97.31;96142.71;114140;1201;30097;-86
2021/08/30 09:14:19;;;;;;;1.90;0.70;;;;;;;12.81;97.30;96143.90;114237;1202;30137;-85
2021/08/30 09:17:02;;;;;;;0.40;0.30;;;;;;;12.83;97.04;96146.84;114236;1200;26458;-85
2021/08/30 09:19:34;;;;;;;0.40;0.30;;;;;;;12.82;96.73;96143.51;114173;1200;27452;-85
2021/08/30 09:22:08;;;;;;;0.20;0.20;;;;;;;12.78;96.35;96146.47;114217;1200;28820;-85
2021/08/30 09:24:40;;;;;;;0.50;0.30;;;;;;;12.80;96.41;96145.20;114180;1203;31619;-86
2021/08/30 09:27:13;;;;;;;0.10;0.10;;;;;;;12.84;96.49;96147.67;114202;1203;30187;-85
2021/08/30 09:29:45;;;;;;;0.50;0.30;;;;;;;12.80;96.31;96144.35;114222;1201;29311;-86
2021/08/30 09:32:19;;;;;;;0.20;0.20;;;;;;;12.73;96.17;96149.58;114209;1200;26607;-85
2021/08/30 09:34:53;;;;;;;0.50;0.20;;;;;;;12.74;96.36;96153.73;114221;1200;28601;-86
2021/08/30 09:37:25;;;;;;;0.30;0.30;;;;;;;12.81;96.60;96150.67;114231;1207;26447;-86
2021/08/30 09:39:58;;;;;;;0.70;0.30;;;;;;;12.89;96.86;96150.59;114256;1201;29061;-85
2021/08/30 09:42:31;;;;;;;0.70;0.20;;;;;;;12.95;96.87;96151.98;114259;1200;29116;-85
2021/08/30 09:45:13;;;;;;;0.40;0.20;;;;;;;12.99;96.66;96153.34;114157;1204;33293;-86
2021/08/30 09:47:56;;;;;;;0.60;0.50;;;;;;;13.00;96.24;96151.53;114259;1200;27276;-86
2021/08/30 09:50:32;;;;;;;18.10;15.30;;;;;;;12.99;95.90;96149.52;114215;1202;27628;-85
2021/08/30 09:53:05;;;;;;;16.40;13.50;;;;;;;12.95;95.55;96155.31;114187;1202;29061;-84
2021/08/30 09:55:37;;;;;;;3.30;2.80;;;;;;;12.97;95.60;96159.38;114195;1202;27529;-87
2021/08/30 09:58:10;;;;;;;16.90;14.60;;;;;;;13.01;95.62;96161.19;114204;1207;32019;-84
2021/08/30 10:00:46;;;;;;;18.40;16.70;;;;;;;13.02;95.31;96161.05;114229;1203;26413;-85
2021/08/30 10:03:19;;;;;;;2.30;2.10;;;;;;;13.04;95.35;96162.41;114170;1205;26127;-85
2021/08/30 10:05:52;;;;;;;1.30;1.00;;;;;;;13.06;95.48;96161.52;114200;1201;27513;-86
2021/08/30 10:08:25;;;;;;;2.90;1.40;;;;;;;13.10;95.51;96161.39;114266;1207;27968;-85
2021/08/30 10:10:57;;;;;;;1.30;1.20;;;;;;;13.09;95.47;96165.45;114267;1207;35326;-85
2021/08/30 10:13:28;;;;;;;23.20;21.00;;;;;;;13.02;95.17;96162.52;114271;1201;28226;-87
2021/08/30 10:16:00;;;;;;;11.10;9.90;;;;;;;12.93;94.79;96162.19;114307;1200;26881;-85
2021/08/30 10:18:31;;;;;;;2.50;2.30;;;;;;;12.81;94.56;96164.27;114262;1201;26368;-85
2021/08/30 10:21:12;;;;;;;14.30;13.00;;;;;;;12.76;94.70;96167.20;114179;1200;30229;-85
2021/08/30 10:23:45;;;;;;;12.70;11.50;;;;;;;12.69;94.55;96164.94;114203;1200;28408;-86
2021/08/30 10:26:17;;;;;;;12.90;11.60;;;;;;;12.64;94.72;96165.73;114217;1203;30156;-86
2021/08/30 10:28:49;;;;;;;1.60;1.50;;;;;;;12.62;94.76;96167.65;114179;1201;27151;-86
2021/08/30 10:31:25;;;;;;;5.80;5.20;;;;;;;12.58;94.78;96170.59;114222;1201;30951;-85
2021/08/30 10:33:58;;;;;;;4.90;4.20;;;;;;;12.50;94.69;96167.66;114310;1201;27719;-85
2021/08/30 10:36:31;;;;;;;6.40;5.20;;;;;;;12.46;94.83;96165.60;114241;1200;32174;-85
2021/08/30 10:39:05;;;;;;;1.90;1.30;;;;;;;12.45;95.20;96166.86;114233;1203;28746;-84
2021/08/30 10:41:40;;;;;;;1.90;1.60;;;;;;;12.41;95.29;96171.34;114254;1200;28090;-85
2021/08/30 10:44:18;;;;;;;0.70;0.70;;;;;;;12.37;95.48;96171.84;114178;1207;29555;-86
2021/08/30 10:46:51;;;;;;;1.30;1.00;;;;;;;12.35;95.82;96173.48;114108;1201;30846;-85
2021/08/30 10:49:27;;;;;;;1.90;1.20;;;;;;;12.32;95.89;96174.06;114231;1200;26726;-85
2021/08/30 10:52:10;;;;;;;1.40;0.70;;;;;;;12.33;95.93;96179.53;114286;1200;29630;-85
2021/08/30 10:54:55;;;;;;;2.60;1.10;;;;;;;12.33;95.99;96179.78;114214;1200;28952;-85
2021/08/30 10:57:38;;;;;;;1.20;1.00;;;;;;;12.32;96.01;96183.97;114216;1201;27392;-85
2021/08/30 11:00:12;;;;;;;0.80;0.60;;;;;;;12.30;95.92;96182.79;114223;1201;29454;-85
2021/08/30 11:02:48;;;;;;;2.00;1.40;;;;;;;12.29;96.16;96189.30;114173;1200;30845;-86
2021/08/30 11:05:30;;;;;;;1.00;0.80;;;;;;;12.27;96.32;96186.78;114209;1203;26016;-86
2021/08/30 11:08:02;;;;;;;1.30;0.80;;;;;;;12.30;96.25;96186.09;114268;1200;29073;-85
2021/08/30 11:10:34;;;;;;;1.20;1.10;;;;;;;12.31;96.19;96188.98;114224;1200;36409;-84
2021/08/30 11:13:06;;;;;;;1.50;1.20;;;;;;;12.32;96.30;96191.25;114238;1201;28108;-85
2021/08/30 11:15:37;;;;;;;1.80;0.90;;;;;;;12.34;96.38;96188.64;114224;1200;30179;-84
2021/08/30 11:18:12;;;;;;;1.20;1.00;;;;;;;12.36;96.33;96193.00;114154;1200;27955;-84
2021/08/30 11:20:51;;;;;;;1.50;1.10;;;;;;;12.38;96.60;96193.71;114209;1201;29007;-85
2021/08/30 11:23:22;;;;;;;1.20;1.00;;;;;;;12.41;96.71;96196.16;114186;1201;32013;-85
2021/08/30 11:26:03;;;;;;;0.90;0.90;;;;;;;12.42;96.73;96191.20;114200;1208;33472;-85
2021/08/30 11:28:35;;;;;;;;;;;;;;;12.42;96.72;96194.76;114232;1207;27398;-85
2021/08/30 11:31:06;;;;;;;1.50;1.00;;;;;;;12.42;97.00;96201.39;114138;1203;29771;-84
2021/08/30 11:33:40;;;;;;;1.10;0.80;;;;;;;12.49;97.11;96200.27;114183;1201;28208;-85
2021/08/30 11:36:12;;;;;;;0.90;0.80;;;;;;;12.55;97.09;96199.20;114137;1202;31612;-86
2021/08/30 11:38:54;;;;;;;1.20;1.10;;;;;;;12.56;96.91;96200.98;114181;1201;28887;-86
2021/08/30 11:41:35;;;;;;;1.40;1.20;;;;;;;12.58;96.77;96199.14;114245;1201;28331;-85
2021/08/30 11:44:07;;;;;;;1.30;1.20;;;;;;;12.58;96.59;96200.52;114192;1200;29919;-86
2021/08/30 11:46:51;;;;;;;1.20;1.10;;;;;;;12.58;96.48;96202.11;114204;1201;31730;-85
2021/08/30 11:49:24;;;;;;;1.90;1.40;;;;;;;12.61;96.60;96207.46;114197;1201;29749;-85
2021/08/30 11:51:58;;;;;;;1.50;1.40;;;;;;;12.68;96.84;96204.59;114225;1200;26914;-85